createdAt,value
2022-09-15T00:03:54.776Z,12.58
2022-09-15T00:08:58.195Z,12.58
2022-09-15T00:14:04.467Z,12.49
2022-09-15T00:19:07.530Z,12.41
2022-09-15T00:24:10.995Z,12.38
2022-09-15T00:29:15.155Z,12.09
2022-09-15T00:34:17.903Z,12.04
2022-09-15T00:39:20.887Z,12.11
2022-09-15T00:44:57.572Z,12.27
2022-09-15T00:50:05.394Z,12.21
2022-09-15T00:55:12.363Z,12.34
2022-09-15T01:00:20.335Z,12.30
2022-09-15T01:05:25.503Z,12.26
2022-09-15T01:10:30.390Z,12.24
2022-09-15T01:15:45.361Z,12.25
2022-09-15T01:21:02.574Z,12.21
2022-09-15T01:26:38.105Z,12.27
2022-09-15T01:32:01.872Z,12.08
2022-09-15T01:37:11.050Z,12.16
2022-09-15T01:42:16.959Z,12.16
2022-09-15T01:47:24.057Z,12.23
2022-09-15T01:52:29.006Z,12.05
2022-09-15T01:57:33.277Z,12.17
2022-09-15T02:02:40.402Z,11.98
2022-09-15T02:07:49.724Z,11.94
2022-09-15T02:12:58.206Z,11.98
2022-09-15T02:18:08.400Z,11.98
2022-09-15T02:23:18.828Z,11.80
2022-09-15T02:28:27.961Z,11.75
2022-09-15T02:33:36.373Z,11.63
2022-09-15T02:38:45.692Z,11.57
2022-09-15T02:43:49.697Z,11.51
2022-09-15T02:48:54.367Z,11.50
2022-09-15T02:53:57.129Z,11.33
2022-09-15T02:58:59.757Z,11.38
2022-09-15T03:04:04.952Z,11.22
2022-09-15T03:09:08.924Z,11.40
2022-09-15T03:14:11.735Z,11.35
2022-09-15T03:19:15.874Z,11.46
2022-09-15T03:24:19.773Z,11.56
2022-09-15T03:29:22.613Z,11.63
2022-09-15T03:34:26.803Z,11.71
2022-09-15T03:39:29.549Z,11.71
2022-09-15T03:44:32.417Z,11.69
2022-09-15T03:49:36.615Z,11.48
2022-09-15T03:54:39.933Z,11.67
2022-09-15T03:59:42.685Z,11.74
2022-09-15T04:04:46.820Z,11.53
2022-09-15T04:09:49.569Z,11.62
2022-09-15T04:14:52.334Z,11.74
2022-09-15T04:19:57.581Z,11.67
2022-09-15T04:25:00.336Z,11.77
2022-09-15T04:30:03.507Z,11.56
2022-09-15T04:35:08.885Z,11.60
2022-09-15T04:40:11.978Z,11.73
2022-09-15T04:45:15.099Z,11.69
2022-09-15T04:50:19.303Z,11.64
2022-09-15T04:55:23.007Z,11.78
2022-09-15T05:00:27.037Z,11.87
2022-09-15T05:05:31.205Z,11.68
2022-09-15T05:10:34.095Z,11.82
2022-09-15T05:15:36.793Z,11.91
2022-09-15T05:20:41.051Z,11.98
2022-09-15T05:25:43.809Z,12.04
2022-09-15T05:30:46.581Z,12.09
2022-09-15T05:35:55.531Z,12.26
2022-09-15T05:41:03.706Z,12.14
2022-09-15T05:46:07.853Z,12.16
2022-09-15T05:51:12.023Z,12.29
2022-09-15T05:56:16.786Z,12.56
2022-09-15T06:01:21.936Z,12.67
2022-09-15T06:06:26.875Z,12.70
2022-09-15T06:11:31.390Z,12.74
2022-09-15T06:16:36.456Z,12.67
2022-09-15T06:21:40.645Z,12.76
2022-09-15T06:26:43.908Z,12.72
2022-09-15T06:31:46.727Z,12.65
2022-09-15T06:36:50.860Z,12.92
2022-09-15T06:42:02.349Z,12.90
2022-09-15T06:47:07.239Z,13.02
2022-09-15T06:52:11.445Z,13.07
2022-09-15T06:57:14.331Z,12.99
2022-09-15T07:02:17.203Z,12.96
2022-09-15T07:07:21.524Z,12.87
2022-09-15T07:12:24.348Z,13.16
2022-09-15T07:17:29.875Z,13.17
2022-09-15T07:22:34.141Z,13.18
2022-09-15T07:27:36.974Z,13.25
2022-09-15T07:32:39.856Z,13.79
2022-09-15T07:37:44.637Z,13.27
2022-09-15T07:42:47.543Z,13.83
2022-09-15T07:47:50.520Z,14.07
2022-09-15T07:52:57.539Z,13.88
2022-09-15T07:58:01.416Z,13.75
2022-09-15T08:03:04.572Z,14.15
2022-09-15T08:08:09.012Z,14.15
2022-09-15T08:13:11.857Z,14.33
2022-09-15T08:18:14.775Z,14.18
2022-09-15T08:23:18.956Z,14.33
2022-09-15T08:28:21.773Z,14.71
2022-09-15T08:33:24.663Z,15.01
2022-09-15T08:38:28.980Z,15.15
2022-09-15T08:43:38.301Z,15.40
2022-09-15T08:48:46.707Z,16.67
2022-09-15T08:53:58.394Z,16.41
2022-09-15T08:59:01.202Z,16.46
2022-09-15T09:04:19.933Z,16.52
2022-09-15T09:09:35.400Z,16.45
2022-09-15T09:14:52.076Z,17.02
2022-09-15T09:20:13.695Z,17.05
2022-09-15T09:25:27.628Z,16.78
2022-09-15T09:30:34.268Z,17.39
2022-09-15T09:35:43.175Z,17.52
2022-09-15T09:40:47.993Z,17.59
2022-09-15T09:45:51.015Z,18.41
2022-09-15T09:50:55.158Z,16.33
2022-09-15T09:56:18.395Z,16.55
2022-09-15T10:01:25.310Z,16.87
2022-09-15T10:06:32.039Z,17.19
2022-09-15T10:11:44.423Z,16.82
2022-09-15T10:16:57.628Z,16.71
2022-09-15T10:22:02.764Z,17.28
2022-09-15T10:27:19.677Z,17.79
2022-09-15T10:32:27.904Z,17.90
2022-09-15T10:37:47.718Z,18.80
2022-09-15T10:42:54.661Z,18.75
2022-09-15T10:48:23.310Z,19.53
2022-09-15T10:53:46.041Z,18.75
2022-09-15T10:59:06.513Z,19.66
2022-09-15T11:04:30.670Z,19.66
2022-09-15T11:09:37.084Z,19.72
2022-09-15T11:14:53.489Z,19.18
2022-09-15T11:20:12.360Z,19.57
2022-09-15T11:25:20.247Z,19.38
2022-09-15T11:30:26.444Z,19.22
2022-09-15T11:35:45.628Z,20.00
2022-09-15T11:40:52.112Z,18.89
2022-09-15T11:45:58.834Z,18.49
2022-09-15T11:51:04.162Z,19.02
2022-09-15T11:56:20.100Z,18.09
2022-09-15T12:01:29.532Z,19.63
2022-09-15T12:06:44.829Z,19.86
2022-09-15T12:11:50.913Z,20.12
2022-09-15T12:16:56.043Z,19.50
2022-09-15T12:22:03.993Z,19.38
2022-09-15T12:27:11.194Z,19.01
2022-09-15T12:32:26.869Z,19.00
2022-09-15T12:37:36.509Z,18.08
2022-09-15T12:42:46.073Z,18.00
2022-09-15T12:47:54.901Z,17.89
2022-09-15T12:53:00.914Z,18.51
2022-09-15T12:58:09.740Z,18.45
2022-09-15T13:03:50.560Z,19.24
2022-09-15T13:09:16.225Z,19.18
2022-09-15T13:14:27.796Z,22.27
2022-09-15T13:19:41.217Z,20.77
2022-09-15T13:24:49.871Z,20.18
2022-09-15T13:30:11.350Z,19.17
2022-09-15T13:40:53.465Z,17.93
2022-09-15T13:46:07.888Z,18.14
2022-09-15T13:51:17.605Z,18.24
2022-09-15T13:56:27.449Z,18.04
2022-09-15T14:01:34.306Z,17.79
2022-09-15T14:06:39.625Z,17.47
2022-09-15T14:11:44.890Z,16.79
2022-09-15T14:16:50.808Z,17.20
2022-09-15T14:21:58.277Z,18.51
2022-09-15T14:27:10.519Z,19.11
2022-09-15T14:32:15.926Z,19.28
2022-09-15T14:37:23.878Z,18.85
2022-09-15T14:42:31.219Z,18.55
2022-09-15T14:47:34.448Z,18.15
2022-09-15T14:52:40.379Z,16.73
2022-09-15T14:57:50.244Z,17.60
2022-09-15T15:03:03.444Z,17.62
2022-09-15T15:08:10.058Z,17.75
2022-09-15T15:13:18.009Z,17.63
2022-09-15T15:18:40.009Z,17.44
2022-09-15T15:23:47.125Z,17.28
2022-09-15T15:28:51.341Z,17.06
2022-09-15T15:33:57.109Z,16.88
2022-09-15T15:39:03.405Z,16.92
2022-09-15T15:44:25.922Z,16.66
2022-09-15T15:49:31.803Z,16.98
2022-09-15T15:54:35.596Z,17.41
2022-09-15T15:59:39.769Z,17.19
2022-09-15T16:04:42.748Z,16.96
2022-09-15T16:09:46.874Z,17.12
2022-09-15T16:14:51.037Z,17.21
2022-09-15T16:19:53.779Z,16.62
2022-09-15T16:24:56.557Z,16.10
2022-09-15T16:30:00.708Z,16.22
2022-09-15T16:35:10.510Z,15.44
2022-09-15T16:40:13.331Z,13.84
2022-09-15T16:45:24.200Z,13.38
2022-09-15T16:50:27.519Z,13.69
2022-09-15T16:55:36.173Z,13.97
2022-09-15T17:00:40.901Z,14.41
2022-09-15T17:05:48.625Z,14.69
2022-09-15T17:10:52.881Z,14.61
2022-09-15T17:15:57.512Z,14.79
2022-09-15T17:21:00.564Z,14.99
2022-09-15T17:26:06.723Z,14.79
2022-09-15T17:31:16.205Z,14.74
2022-09-15T17:36:19.547Z,14.91
2022-09-15T17:41:22.806Z,14.67
2022-09-15T17:46:26.998Z,14.38
2022-09-15T17:51:29.943Z,14.70
2022-09-15T17:56:32.706Z,14.61
2022-09-15T18:01:37.022Z,14.07
2022-09-15T18:06:44.724Z,13.78
2022-09-15T18:11:48.363Z,13.64
2022-09-15T18:16:52.565Z,13.85
2022-09-15T18:21:55.476Z,13.81
2022-09-15T18:26:58.221Z,13.94
2022-09-15T18:32:03.126Z,13.42
2022-09-15T18:37:06.007Z,13.67
2022-09-15T18:42:10.114Z,13.70
2022-09-15T18:47:14.295Z,13.83
2022-09-15T18:52:17.163Z,13.78
2022-09-15T18:57:20.131Z,13.80
2022-09-15T19:02:24.289Z,13.86
2022-09-15T19:07:28.592Z,13.88
2022-09-15T19:12:31.533Z,13.79
2022-09-15T19:17:36.044Z,13.38
2022-09-15T19:22:39.636Z,13.47
2022-09-15T19:27:43.025Z,13.55
2022-09-15T19:32:47.118Z,13.32
2022-09-15T19:37:49.903Z,13.27
2022-09-15T19:42:52.634Z,13.01
2022-09-15T19:47:56.879Z,13.38
2022-09-15T19:53:01.505Z,13.25
2022-09-15T19:58:05.020Z,13.10
2022-09-15T20:03:09.488Z,13.10
2022-09-15T20:08:12.292Z,13.17
2022-09-15T20:13:16.765Z,13.02
2022-09-15T20:18:21.085Z,13.04
2022-09-15T20:23:24.216Z,12.88
2022-09-15T20:28:28.259Z,12.52
2022-09-15T20:33:33.600Z,12.72
2022-09-15T20:38:37.489Z,12.83
2022-09-15T20:43:41.662Z,12.24
2022-09-15T20:48:47.037Z,12.31
2022-09-15T20:53:51.390Z,12.17
2022-09-15T20:58:55.297Z,12.00
2022-09-15T21:03:59.806Z,12.25
2022-09-15T21:09:02.896Z,12.39
2022-09-15T21:14:05.806Z,12.17
2022-09-15T21:19:12.214Z,11.94
2022-09-15T21:24:15.150Z,11.94
2022-09-15T21:29:18.077Z,11.98
2022-09-15T21:34:22.253Z,11.81
2022-09-15T21:39:25.368Z,12.04
2022-09-15T21:44:28.228Z,11.83
2022-09-15T21:49:33.434Z,11.53
2022-09-15T21:54:36.198Z,11.82
2022-09-15T21:59:39.233Z,11.58
2022-09-15T22:04:43.449Z,11.54
2022-09-15T22:09:47.608Z,11.70
2022-09-15T22:14:50.755Z,11.42
2022-09-15T22:19:54.933Z,11.35
2022-09-15T22:24:57.822Z,11.48
2022-09-15T22:30:00.802Z,11.22
2022-09-15T22:35:05.518Z,11.04
2022-09-15T22:40:09.526Z,11.15
2022-09-15T22:45:12.381Z,11.19
2022-09-15T22:50:16.679Z,11.34
2022-09-15T22:55:19.718Z,11.17
2022-09-15T23:00:23.286Z,11.36
2022-09-15T23:05:27.699Z,10.82
2022-09-15T23:10:30.720Z,11.11
2022-09-15T23:15:35.226Z,11.04
2022-09-15T23:20:39.777Z,11.01
2022-09-15T23:25:42.582Z,11.08
2022-09-15T23:30:45.176Z,11.12
2022-09-15T23:35:49.355Z,11.19
2022-09-15T23:40:52.165Z,11.15
2022-09-15T23:45:54.990Z,11.18
2022-09-15T23:50:59.607Z,10.81
2022-09-15T23:56:03.116Z,11.09
